createdAt,value
2023-03-24T00:01:07.573Z,98750.13
2023-03-24T00:03:38.114Z,98749.16
2023-03-24T00:06:09.372Z,98742.63
2023-03-24T00:08:38.772Z,98740.03
2023-03-24T00:11:11.700Z,98743.34
2023-03-24T00:13:41.367Z,98749.91
2023-03-24T00:16:13.182Z,98742.91
2023-03-24T00:18:43.118Z,98741.13
2023-03-24T00:21:13.629Z,98737.41
2023-03-24T00:23:42.904Z,98734.78
2023-03-24T00:26:15.606Z,98732.19
2023-03-24T00:28:46.189Z,98738.41
2023-03-24T00:31:16.410Z,98737.47
2023-03-24T00:33:51.013Z,98740.09
2023-03-24T00:36:23.179Z,98738.78
2023-03-24T00:38:52.312Z,98734.38
2023-03-24T00:41:21.476Z,98720.81
2023-03-24T00:43:51.122Z,98719.16
2023-03-24T00:46:28.619Z,98710.81
2023-03-24T00:49:03.688Z,98715.56
2023-03-24T00:51:34.462Z,98706.06
2023-03-24T00:54:03.921Z,98697.72
2023-03-24T00:56:37.984Z,98700.84
2023-03-24T00:59:10.001Z,98697.25
2023-03-24T01:01:41.273Z,98684.47
2023-03-24T01:04:11.513Z,98689.22
2023-03-24T01:06:41.253Z,98690.03
2023-03-24T01:09:10.706Z,98682.00
2023-03-24T01:11:42.050Z,98684.78
2023-03-24T01:14:12.013Z,98682.84
2023-03-24T01:16:41.023Z,98682.00
2023-03-24T01:19:11.298Z,98688.72
2023-03-24T01:21:42.356Z,98689.53
2023-03-24T01:24:13.644Z,98681.19
2023-03-24T01:26:42.276Z,98677.94
2023-03-24T01:29:11.470Z,98673.50
2023-03-24T01:31:40.089Z,98672.72
2023-03-24T01:34:09.957Z,98665.16
2023-03-24T01:36:38.394Z,98662.38
2023-03-24T01:39:06.836Z,98666.81
2023-03-24T01:41:40.953Z,98659.59
2023-03-24T01:44:29.944Z,98663.19
2023-03-24T01:46:59.308Z,98656.16
2023-03-24T01:49:34.468Z,98658.94
2023-03-24T01:52:08.605Z,98643.06
2023-03-24T01:54:43.030Z,98645.03
2023-03-24T01:57:16.220Z,98648.97
2023-03-24T01:59:49.696Z,98646.19
2023-03-24T02:02:22.253Z,98638.66
2023-03-24T02:04:56.748Z,98641.78
2023-03-24T02:07:34.776Z,98640.13
2023-03-24T02:10:07.188Z,98640.13
2023-03-24T02:12:36.816Z,98639.34
2023-03-24T02:15:07.658Z,98646.38
2023-03-24T02:18:02.218Z,98635.44
2023-03-24T02:21:36.725Z,98647.06
2023-03-24T02:25:04.938Z,98645.63
2023-03-24T02:28:06.705Z,98645.81
2023-03-24T02:31:04.121Z,98649.72
2023-03-24T02:34:22.021Z,98646.00
2023-03-24T02:37:33.922Z,98648.28
2023-03-24T02:40:19.744Z,98630.78
2023-03-24T02:43:06.126Z,98632.75
2023-03-24T02:45:40.029Z,98624.88
2023-03-24T02:48:24.533Z,98623.75
2023-03-24T02:51:06.086Z,98627.00
2023-03-24T02:53:46.741Z,98633.06
2023-03-24T02:56:25.126Z,98633.06
2023-03-24T02:58:58.285Z,98627.50
2023-03-24T03:01:32.654Z,98624.72
2023-03-24T03:04:08.584Z,98628.31
2023-03-24T03:06:40.742Z,98630.75
2023-03-24T03:09:13.390Z,98625.19
2023-03-24T03:11:48.769Z,98627.97
2023-03-24T03:14:23.572Z,98617.69
2023-03-24T03:16:59.996Z,98613.72
2023-03-24T03:19:34.632Z,98610.94
2023-03-24T03:22:06.225Z,98604.25
2023-03-24T03:24:40.854Z,98614.56
2023-03-24T03:27:15.737Z,98604.25
2023-03-24T03:29:50.244Z,98602.59
2023-03-24T03:32:28.441Z,98593.13
2023-03-24T03:35:03.363Z,98591.50
2023-03-24T03:37:44.860Z,98590.69
2023-03-24T03:40:22.028Z,98596.56
2023-03-24T03:42:52.485Z,98601.34
2023-03-24T03:45:20.968Z,98608.03
2023-03-24T03:47:50.447Z,98608.03
2023-03-24T03:50:19.310Z,98603.59
2023-03-24T03:52:47.824Z,98597.25
2023-03-24T03:55:17.055Z,98596.44
2023-03-24T03:57:45.912Z,98597.25
2023-03-24T04:00:20.029Z,98595.63
2023-03-24T04:03:17.650Z,98594.78
2023-03-24T04:05:54.051Z,98598.06
2023-03-24T04:08:29.777Z,98600.81
2023-03-24T04:11:33.635Z,98606.72
2023-03-24T04:14:23.763Z,98595.63
2023-03-24T04:17:08.926Z,98612.78
2023-03-24T04:19:50.953Z,98617.50
2023-03-24T04:22:33.452Z,98622.28
2023-03-24T04:25:14.377Z,98622.75
2023-03-24T04:27:48.824Z,98622.41
2023-03-24T04:30:24.671Z,98617.69
2023-03-24T04:33:00.343Z,98622.06
2023-03-24T04:35:35.530Z,98618.97
2023-03-24T04:38:08.794Z,98617.81
2023-03-24T04:40:42.208Z,98615.03
2023-03-24T04:43:17.574Z,98623.38
2023-03-24T04:45:49.815Z,98625.38
2023-03-24T04:48:21.443Z,98620.81
2023-03-24T04:50:57.253Z,98610.34
2023-03-24T04:53:25.662Z,98614.25
2023-03-24T04:56:28.427Z,98598.91
2023-03-24T04:58:58.757Z,98596.78
2023-03-24T05:01:30.306Z,98599.75
2023-03-24T05:04:01.191Z,98589.63
2023-03-24T05:06:29.671Z,98583.94
2023-03-24T05:08:59.185Z,98588.19
2023-03-24T05:11:28.312Z,98583.28
2023-03-24T05:13:56.924Z,98582.81
2023-03-24T05:16:25.394Z,98588.72
2023-03-24T05:18:53.858Z,98579.88
2023-03-24T05:21:23.694Z,98577.09
2023-03-24T05:23:52.126Z,98576.28
2023-03-24T05:26:20.559Z,98574.34
2023-03-24T05:28:49.024Z,98579.06
2023-03-24T05:31:17.582Z,98581.03
2023-03-24T05:33:46.238Z,98564.34
2023-03-24T05:36:15.041Z,98583.31
2023-03-24T05:38:45.054Z,98581.19
2023-03-24T05:41:13.472Z,98580.72
2023-03-24T05:43:41.903Z,98576.97
2023-03-24T05:46:10.479Z,98576.50
2023-03-24T05:48:38.919Z,98569.16
2023-03-24T05:51:07.999Z,98557.34
2023-03-24T05:53:36.737Z,98540.88
2023-03-24T05:56:12.056Z,98522.13
2023-03-24T05:58:40.528Z,98525.19
2023-03-24T06:01:10.764Z,98524.41
2023-03-24T06:03:40.589Z,98533.22
2023-03-24T06:06:14.973Z,98539.59
2023-03-24T06:08:45.168Z,98545.16
2023-03-24T06:11:15.576Z,98542.84
2023-03-24T06:13:44.007Z,98536.78
2023-03-24T06:16:12.996Z,98517.00
2023-03-24T06:18:42.797Z,98514.69
2023-03-24T06:21:11.373Z,98521.84
2023-03-24T06:23:39.841Z,98524.72
2023-03-24T06:26:12.594Z,98521.91
2023-03-24T06:28:43.314Z,98502.75
2023-03-24T06:31:15.258Z,98496.19
2023-03-24T06:33:43.873Z,98495.47
2023-03-24T06:36:14.081Z,98500.84
2023-03-24T06:38:44.008Z,98506.69
2023-03-24T06:41:12.713Z,98495.88
2023-03-24T06:43:42.589Z,98500.09
2023-03-24T06:46:11.319Z,98478.00
2023-03-24T06:48:39.869Z,98471.63
2023-03-24T06:51:09.267Z,98483.69
2023-03-24T06:53:37.891Z,98495.44
2023-03-24T06:56:07.596Z,98504.06
2023-03-24T06:58:36.118Z,98508.25
2023-03-24T07:03:35.713Z,98494.88
2023-03-24T07:06:05.129Z,98497.47
2023-03-24T07:08:38.031Z,98501.66
2023-03-24T07:11:08.941Z,98505.53
2023-03-24T07:13:37.623Z,98514.25
2023-03-24T07:16:08.625Z,98509.44
2023-03-24T07:18:37.135Z,98512.28
2023-03-24T07:21:06.076Z,98523.00
2023-03-24T07:23:34.778Z,98506.63
2023-03-24T07:26:03.234Z,98513.41
2023-03-24T07:28:31.665Z,98500.66
2023-03-24T07:31:04.061Z,98494.97
2023-03-24T07:33:34.703Z,98506.34
2023-03-24T07:36:03.231Z,98503.44
2023-03-24T07:38:32.407Z,98508.25
2023-03-24T07:41:00.893Z,98511.84
2023-03-24T07:43:29.325Z,98508.25
2023-03-24T07:45:57.881Z,98507.66
2023-03-24T07:48:26.372Z,98505.31
2023-03-24T07:50:56.447Z,98502.63
2023-03-24T07:53:24.914Z,98510.75
2023-03-24T07:55:53.345Z,98503.06
2023-03-24T07:58:21.805Z,98507.25
2023-03-24T08:00:50.597Z,98513.06
2023-03-24T08:03:19.435Z,98500.94
2023-03-24T08:05:48.707Z,98495.13
2023-03-24T08:08:18.603Z,98497.66
2023-03-24T08:10:47.421Z,98504.97
2023-03-24T08:13:16.029Z,98511.22
2023-03-24T08:15:45.063Z,98514.22
2023-03-24T08:18:13.607Z,98499.66
2023-03-24T08:20:42.079Z,98499.72
2023-03-24T08:23:11.204Z,98500.22
2023-03-24T08:25:41.430Z,98491.84
2023-03-24T08:28:10.234Z,98490.41
2023-03-24T08:30:38.756Z,98490.94
2023-03-24T08:33:07.321Z,98490.78
2023-03-24T08:35:38.897Z,98491.69
2023-03-24T08:38:08.955Z,98484.47
2023-03-24T08:40:38.926Z,98479.69
2023-03-24T08:43:14.027Z,98479.78
2023-03-24T08:45:42.941Z,98473.69
2023-03-24T08:48:11.581Z,98483.91
2023-03-24T08:50:42.832Z,98479.75
2023-03-24T08:53:12.527Z,98486.88
2023-03-24T08:55:43.207Z,98487.22
2023-03-24T08:58:16.010Z,98493.97
2023-03-24T09:00:46.503Z,98488.38
2023-03-24T09:03:18.544Z,98481.84
2023-03-24T09:05:48.347Z,98480.09
2023-03-24T09:08:19.337Z,98499.19
2023-03-24T09:10:48.309Z,98495.91
2023-03-24T09:13:20.390Z,98489.75
2023-03-24T09:15:50.214Z,98487.59
2023-03-24T09:18:21.038Z,98496.97
2023-03-24T09:20:49.898Z,98494.31
2023-03-24T09:23:19.186Z,98490.81
2023-03-24T09:25:50.321Z,98480.47
2023-03-24T09:28:20.471Z,98481.06
2023-03-24T09:30:49.630Z,98492.50
2023-03-24T09:33:18.931Z,98491.97
2023-03-24T09:35:47.371Z,98501.38
2023-03-24T09:38:15.946Z,98512.41
2023-03-24T09:40:44.460Z,98507.78
2023-03-24T09:43:26.225Z,98498.28
2023-03-24T09:45:58.301Z,98496.81
2023-03-24T09:48:37.628Z,98495.69
2023-03-24T09:51:10.163Z,98485.03
2023-03-24T09:53:47.905Z,98481.13
2023-03-24T09:56:20.634Z,98476.41
2023-03-24T09:59:02.012Z,98484.94
2023-03-24T10:01:30.639Z,98474.53
2023-03-24T10:04:01.318Z,98479.78
2023-03-24T10:06:38.659Z,98476.16
2023-03-24T10:09:22.964Z,98483.06
2023-03-24T10:12:12.367Z,98478.84
2023-03-24T10:15:16.197Z,98473.41
2023-03-24T10:17:57.925Z,98468.00
2023-03-24T10:20:36.133Z,98460.03
2023-03-24T10:23:22.995Z,98456.53
2023-03-24T10:25:57.556Z,98448.16
2023-03-24T10:28:35.469Z,98450.56
2023-03-24T10:31:12.979Z,98464.38
2023-03-24T10:33:44.964Z,98450.41
2023-03-24T10:36:18.179Z,98449.34
2023-03-24T10:38:47.456Z,98441.84
2023-03-24T10:41:19.756Z,98447.09
2023-03-24T10:43:51.850Z,98447.16
2023-03-24T10:46:26.095Z,98450.00
2023-03-24T10:48:56.344Z,98448.81
2023-03-24T10:51:28.962Z,98448.41
2023-03-24T10:54:13.957Z,98436.41
2023-03-24T10:56:45.212Z,98441.69
2023-03-24T10:59:28.884Z,98440.50
2023-03-24T11:02:18.609Z,98436.97
2023-03-24T11:04:55.599Z,98436.22
2023-03-24T11:07:26.122Z,98429.84
2023-03-24T11:10:08.332Z,98422.72
2023-03-24T11:12:39.785Z,98425.97
2023-03-24T11:15:23.021Z,98431.59
2023-03-24T11:17:58.661Z,98416.78
2023-03-24T11:20:32.593Z,98419.69
2023-03-24T11:23:05.363Z,98414.56
2023-03-24T11:25:36.962Z,98417.44
2023-03-24T11:28:10.385Z,98415.84
2023-03-24T11:30:48.470Z,98408.69
2023-03-24T11:33:35.856Z,98399.84
2023-03-24T11:36:30.612Z,98390.56
2023-03-24T11:39:10.984Z,98394.22
2023-03-24T11:41:42.193Z,98388.53
2023-03-24T11:44:20.022Z,98393.34
2023-03-24T11:46:53.829Z,98391.28
2023-03-24T11:49:28.616Z,98387.63
2023-03-24T11:51:57.545Z,98394.84
2023-03-24T11:54:33.142Z,98385.19
2023-03-24T11:57:08.532Z,98387.25
2023-03-24T11:59:43.431Z,98386.88
2023-03-24T12:02:25.552Z,98387.69
2023-03-24T12:05:28.295Z,98382.81
2023-03-24T12:08:14.900Z,98376.28
2023-03-24T12:10:56.486Z,98373.34
2023-03-24T12:13:36.607Z,98374.03
2023-03-24T12:16:40.241Z,98373.94
2023-03-24T12:19:42.279Z,98375.84
2023-03-24T12:22:29.207Z,98369.31
2023-03-24T12:25:22.776Z,98369.31
2023-03-24T12:28:03.305Z,98370.59
2023-03-24T12:30:38.276Z,98377.06
2023-03-24T12:33:28.310Z,98369.00
2023-03-24T12:36:21.906Z,98373.50
2023-03-24T12:39:06.058Z,98367.00
2023-03-24T12:41:50.069Z,98364.50
2023-03-24T12:44:59.665Z,98368.00
2023-03-24T12:48:03.824Z,98365.03
2023-03-24T12:50:54.565Z,98361.59
2023-03-24T12:53:42.770Z,98361.59
2023-03-24T12:56:19.450Z,98357.19
2023-03-24T12:58:53.454Z,98359.69
2023-03-24T13:01:29.525Z,98360.59
2023-03-24T13:04:08.037Z,98364.84
2023-03-24T13:06:46.069Z,98353.28
2023-03-24T13:09:29.697Z,98358.72
2023-03-24T13:12:05.884Z,98357.66
2023-03-24T13:14:47.758Z,98356.94
2023-03-24T13:17:22.578Z,98357.03
2023-03-24T13:19:53.083Z,98362.66
2023-03-24T13:22:24.336Z,98358.63
2023-03-24T13:24:55.394Z,98357.03
2023-03-24T13:27:29.587Z,98344.47
2023-03-24T13:30:21.972Z,98342.44
2023-03-24T13:32:54.933Z,98335.41
2023-03-24T13:35:42.348Z,98342.63
2023-03-24T13:38:19.640Z,98339.75
2023-03-24T13:40:53.256Z,98340.81
2023-03-24T13:43:26.140Z,98341.06
2023-03-24T13:46:03.224Z,98351.56
2023-03-24T13:48:37.755Z,98341.38
2023-03-24T13:51:17.399Z,98342.75
2023-03-24T13:53:54.308Z,98332.94
2023-03-24T13:56:28.944Z,98333.66
2023-03-24T13:59:31.680Z,98336.09
2023-03-24T14:02:49.741Z,98334.47
2023-03-24T14:05:59.404Z,98328.53
2023-03-24T14:08:45.338Z,98326.34
2023-03-24T14:12:18.716Z,98335.44
2023-03-24T14:15:21.356Z,98336.44
2023-03-24T14:17:54.825Z,98344.25
2023-03-24T14:20:36.114Z,98339.88
2023-03-24T14:23:05.434Z,98351.66
2023-03-24T14:25:36.897Z,98358.22
2023-03-24T14:28:23.144Z,98359.47
2023-03-24T14:31:10.055Z,98348.22
2023-03-24T14:33:40.948Z,98361.94
2023-03-24T14:36:12.228Z,98353.06
2023-03-24T14:38:44.279Z,98361.50
2023-03-24T14:41:17.276Z,98362.22
2023-03-24T14:44:00.651Z,98370.63
2023-03-24T14:46:50.400Z,98370.00
2023-03-24T14:49:28.007Z,98367.78
2023-03-24T14:52:09.948Z,98370.84
2023-03-24T14:54:44.117Z,98379.41
2023-03-24T14:57:20.212Z,98379.56
2023-03-24T14:59:53.837Z,98383.72
2023-03-24T15:02:37.111Z,98389.03
2023-03-24T15:05:26.177Z,98391.47
2023-03-24T15:08:13.840Z,98388.00
2023-03-24T15:10:48.319Z,98399.81
2023-03-24T15:13:34.154Z,98400.75
2023-03-24T15:16:06.726Z,98395.75
2023-03-24T15:18:44.192Z,98393.53
2023-03-24T15:21:27.151Z,98402.50
2023-03-24T15:23:57.216Z,98390.78
2023-03-24T15:26:28.432Z,98406.69
2023-03-24T15:28:59.231Z,98407.72
2023-03-24T15:31:31.325Z,98402.38
2023-03-24T15:34:25.409Z,98416.22
2023-03-24T15:36:56.586Z,98421.22
2023-03-24T15:39:29.277Z,98427.06
2023-03-24T15:41:57.830Z,98436.78
2023-03-24T15:44:30.999Z,98443.63
2023-03-24T15:47:01.545Z,98439.72
2023-03-24T15:49:35.652Z,98443.31
2023-03-24T15:52:25.003Z,98454.06
2023-03-24T15:54:56.100Z,98458.00
2023-03-24T15:57:26.169Z,98453.41
2023-03-24T16:00:11.905Z,98453.94
2023-03-24T16:02:46.727Z,98466.25
2023-03-24T16:05:25.381Z,98451.44
2023-03-24T16:07:59.412Z,98455.38
2023-03-24T16:10:34.100Z,98462.53
2023-03-24T16:13:16.665Z,98462.44
2023-03-24T16:15:48.233Z,98458.53
2023-03-24T16:18:26.088Z,98447.75
2023-03-24T16:20:56.194Z,98446.72
2023-03-24T16:23:26.300Z,98442.56
2023-03-24T16:25:55.381Z,98430.47
2023-03-24T16:28:25.238Z,98429.19
2023-03-24T16:31:01.313Z,98422.38
2023-03-24T16:33:30.810Z,98423.59
2023-03-24T16:36:01.115Z,98427.59
2023-03-24T16:38:29.808Z,98425.94
2023-03-24T16:40:58.978Z,98425.84
2023-03-24T16:43:29.781Z,98438.88
2023-03-24T16:45:58.415Z,98430.75
2023-03-24T16:48:28.172Z,98426.56
2023-03-24T16:50:58.218Z,98428.78
2023-03-24T16:53:28.466Z,98424.00
2023-03-24T16:55:56.993Z,98427.47
2023-03-24T16:58:25.887Z,98439.34
2023-03-24T17:00:56.468Z,98435.72
2023-03-24T17:03:25.195Z,98424.69
2023-03-24T17:05:54.058Z,98435.72
2023-03-24T17:08:22.665Z,98438.34
2023-03-24T17:10:55.138Z,98441.34
2023-03-24T17:13:26.755Z,98448.94
2023-03-24T17:15:56.149Z,98451.22
2023-03-24T17:18:26.752Z,98443.69
2023-03-24T17:20:55.748Z,98444.50
2023-03-24T17:23:25.877Z,98449.38
2023-03-24T17:25:58.250Z,98425.16
2023-03-24T17:28:27.217Z,98415.63
2023-03-24T17:30:57.131Z,98404.47
2023-03-24T17:33:25.887Z,98396.47
2023-03-24T17:35:56.483Z,98408.75
2023-03-24T17:38:26.242Z,98417.94
2023-03-24T17:41:05.772Z,98421.06
2023-03-24T17:43:35.605Z,98415.63
2023-03-24T17:46:07.925Z,98435.94
2023-03-24T17:48:37.516Z,98431.28
2023-03-24T17:51:08.992Z,98439.28
2023-03-24T17:53:38.090Z,98443.03
2023-03-24T17:56:12.663Z,98440.72
2023-03-24T17:58:47.566Z,98436.88
2023-03-24T18:01:18.738Z,98447.34
2023-03-24T18:03:50.160Z,98457.44
2023-03-24T18:06:20.355Z,98459.06
2023-03-24T18:08:52.232Z,98451.06
2023-03-24T18:11:22.974Z,98447.66
2023-03-24T18:13:55.116Z,98446.59
2023-03-24T18:16:27.285Z,98446.38
2023-03-24T18:19:01.091Z,98443.22
2023-03-24T18:21:31.972Z,98435.16
2023-03-24T18:24:02.248Z,98442.78
2023-03-24T18:26:34.354Z,98439.63
2023-03-24T18:29:06.169Z,98444.94
2023-03-24T18:31:36.417Z,98448.59
2023-03-24T18:34:06.801Z,98447.50
2023-03-24T18:36:36.540Z,98455.59
2023-03-24T18:39:08.700Z,98463.69
2023-03-24T18:41:41.509Z,98465.03
2023-03-24T18:44:16.092Z,98468.00
2023-03-24T18:46:46.428Z,98473.91
2023-03-24T18:49:17.048Z,98468.69
2023-03-24T18:51:47.030Z,98462.66
2023-03-24T18:54:17.079Z,98463.78
2023-03-24T18:56:49.208Z,98460.88
2023-03-24T18:59:18.523Z,98463.16
2023-03-24T19:01:51.485Z,98474.63
2023-03-24T19:04:22.247Z,98476.59
2023-03-24T19:06:52.803Z,98472.50
2023-03-24T19:09:23.583Z,98474.00
2023-03-24T19:11:55.985Z,98466.00
2023-03-24T19:14:27.160Z,98465.53
2023-03-24T19:17:02.842Z,98462.75
2023-03-24T19:19:33.134Z,98466.19
2023-03-24T19:22:04.211Z,98460.97
2023-03-24T19:24:35.390Z,98453.47
2023-03-24T19:27:09.199Z,98442.66
2023-03-24T19:29:42.568Z,98448.22
2023-03-24T19:32:14.754Z,98455.44
2023-03-24T19:34:49.213Z,98460.63
2023-03-24T19:37:22.125Z,98464.59
2023-03-24T19:39:52.983Z,98463.88
2023-03-24T19:42:34.115Z,98472.22
2023-03-24T19:45:03.850Z,98465.19
2023-03-24T19:47:34.709Z,98466.47
2023-03-24T19:50:07.277Z,98464.53
2023-03-24T19:52:43.189Z,98462.56
2023-03-24T19:55:15.343Z,98472.88
2023-03-24T19:57:47.893Z,98470.09
2023-03-24T20:00:20.400Z,98473.34
2023-03-24T20:02:50.295Z,98477.75
2023-03-24T20:05:23.878Z,98474.97
2023-03-24T20:07:56.067Z,98490.84
2023-03-24T20:10:27.390Z,98491.19
2023-03-24T20:13:00.513Z,98495.09
2023-03-24T20:15:30.916Z,98486.28
2023-03-24T20:18:01.271Z,98487.44
2023-03-24T20:20:32.295Z,98481.88
2023-03-24T20:23:05.284Z,98488.59
2023-03-24T20:25:36.148Z,98483.84
2023-03-24T20:28:09.889Z,98487.44
2023-03-24T20:30:45.928Z,98489.41
2023-03-24T20:33:19.291Z,98488.59
2023-03-24T20:35:50.377Z,98486.00
2023-03-24T20:38:22.506Z,98481.09
2023-03-24T20:41:02.873Z,98480.50
2023-03-24T20:43:37.009Z,98467.28
2023-03-24T20:46:14.646Z,98473.84
2023-03-24T20:48:44.590Z,98471.72
2023-03-24T20:51:18.868Z,98466.50
2023-03-24T20:53:49.942Z,98453.28
2023-03-24T20:56:21.649Z,98446.41
2023-03-24T20:58:53.731Z,98444.00
2023-03-24T21:01:25.223Z,98441.56
2023-03-24T21:04:00.143Z,98439.91
2023-03-24T21:06:39.880Z,98440.25
2023-03-24T21:09:10.402Z,98445.00
2023-03-24T21:11:42.074Z,98440.56
2023-03-24T21:14:14.953Z,98438.63
2023-03-24T21:16:44.822Z,98422.78
2023-03-24T21:19:14.811Z,98427.50
2023-03-24T21:21:44.953Z,98408.53
2023-03-24T21:24:17.484Z,98406.56
2023-03-24T21:26:49.878Z,98395.47
2023-03-24T21:29:22.993Z,98388.59
2023-03-24T21:31:53.077Z,98380.63
2023-03-24T21:34:22.371Z,98377.38
2023-03-24T21:36:56.107Z,98396.81
2023-03-24T21:39:25.167Z,98391.56
2023-03-24T21:41:55.201Z,98381.63
2023-03-24T21:44:25.583Z,98377.22
2023-03-24T21:46:54.489Z,98371.34
2023-03-24T21:49:23.141Z,98357.44
2023-03-24T21:51:55.092Z,98371.00
2023-03-24T21:54:23.658Z,98367.38
2023-03-24T21:56:52.165Z,98362.31
2023-03-24T21:59:20.672Z,98381.44
2023-03-24T22:01:52.316Z,98387.13
2023-03-24T22:04:20.825Z,98418.97
2023-03-24T22:06:49.268Z,98395.63
2023-03-24T22:09:19.173Z,98392.50
2023-03-24T22:11:47.675Z,98387.41
2023-03-24T22:14:16.376Z,98386.25
2023-03-24T22:16:44.806Z,98387.88
2023-03-24T22:19:14.670Z,98409.50
2023-03-24T22:21:43.096Z,98400.38
2023-03-24T22:24:11.564Z,98412.38
2023-03-24T22:26:39.982Z,98410.94
2023-03-24T22:29:08.419Z,98412.97
2023-03-24T22:31:42.093Z,98408.06
2023-03-24T22:34:10.686Z,98403.34
2023-03-24T22:36:40.495Z,98411.66
2023-03-24T22:39:09.922Z,98408.53
2023-03-24T22:41:38.388Z,98403.81
2023-03-24T22:44:07.518Z,98397.44
2023-03-24T22:46:36.027Z,98400.22
2023-03-24T22:49:04.607Z,98396.09
2023-03-24T22:51:33.502Z,98377.31
2023-03-24T22:54:04.230Z,98382.75
2023-03-24T22:56:32.711Z,98392.56
2023-03-24T22:59:01.150Z,98390.91
2023-03-24T23:01:29.679Z,98396.47
2023-03-24T23:03:58.102Z,98409.22
2023-03-24T23:06:28.101Z,98416.72
2023-03-24T23:08:57.084Z,98421.47
2023-03-24T23:11:27.106Z,98429.00
2023-03-24T23:14:02.379Z,98422.28
2023-03-24T23:16:30.883Z,98423.44
2023-03-24T23:18:59.324Z,98431.78
2023-03-24T23:21:28.527Z,98418.53
2023-03-24T23:23:57.125Z,98430.78
2023-03-24T23:26:27.119Z,98437.50
2023-03-24T23:28:55.650Z,98424.28
2023-03-24T23:31:28.565Z,98399.47
2023-03-24T23:33:58.963Z,98437.56
2023-03-24T23:36:28.489Z,98455.34
2023-03-24T23:38:57.143Z,98437.72
2023-03-24T23:41:27.058Z,98435.94
2023-03-24T23:43:55.889Z,98429.91
2023-03-24T23:46:25.901Z,98458.81
2023-03-24T23:48:54.590Z,98442.00
2023-03-24T23:51:23.039Z,98437.09
2023-03-24T23:53:51.537Z,98431.06
2023-03-24T23:56:21.493Z,98436.94
2023-03-24T23:58:51.434Z,98450.69
